createdAt,value
2017-02-01T00:00:11.537Z,-0.37
2017-02-01T00:01:11.893Z,-0.34
2017-02-01T00:02:11.874Z,-0.37
2017-02-01T00:03:11.462Z,-0.4
2017-02-01T00:04:11.846Z,-0.27
2017-02-01T00:05:11.820Z,-0.36
2017-02-01T00:06:11.803Z,-0.28
2017-02-01T00:07:11.793Z,-0.31
2017-02-01T00:08:11.768Z,-0.33
2017-02-01T00:09:11.761Z,-0.31
2017-02-01T00:10:11.734Z,-0.36
2017-02-01T00:11:11.724Z,-0.37
2017-02-01T00:12:11.309Z,-0.31
2017-02-01T00:13:11.682Z,-0.34
2017-02-01T00:14:11.672Z,-0.36
2017-02-01T00:15:11.649Z,-0.4
2017-02-01T00:16:11.232Z,-0.33
2017-02-01T00:17:11.617Z,-0.38
2017-02-01T00:18:11.605Z,-0.37
2017-02-01T00:19:11.590Z,-0.34
2017-02-01T00:20:11.569Z,-0.37
2017-02-01T00:21:11.550Z,-0.33
2017-02-01T00:22:11.533Z,-0.37
2017-02-01T00:23:11.513Z,-0.36
2017-02-01T00:24:11.491Z,-0.36
2017-02-01T00:25:11.473Z,-0.33
2017-02-01T00:26:11.458Z,-0.37
2017-02-01T00:27:11.444Z,-0.36
2017-02-01T00:28:11.026Z,-0.46
2017-02-01T00:29:11.406Z,-0.45
2017-02-01T00:30:10.993Z,-0.34
2017-02-01T00:31:11.374Z,-0.37
2017-02-01T00:32:11.353Z,-0.48
2017-02-01T00:33:11.340Z,-0.43
2017-02-01T00:34:11.323Z,-0.54
2017-02-01T00:35:11.301Z,-0.51
2017-02-01T00:36:10.488Z,-0.52
2017-02-01T00:37:11.264Z,-0.48
2017-02-01T00:38:10.853Z,-0.43
2017-02-01T00:39:11.235Z,-0.52
2017-02-01T00:40:11.215Z,-0.52
2017-02-01T00:41:11.196Z,-0.54
2017-02-01T00:42:11.180Z,-0.45
2017-02-01T00:43:11.163Z,-0.45
2017-02-01T00:44:10.748Z,-0.46
2017-02-01T00:45:11.129Z,-0.52
2017-02-01T00:46:11.109Z,-0.56
2017-02-01T00:47:11.094Z,-0.49
2017-02-01T00:48:10.278Z,-0.41
2017-02-01T00:49:11.061Z,-0.46
2017-02-01T00:50:10.645Z,-0.51
2017-02-01T00:51:11.018Z,-0.48
2017-02-01T00:52:10.605Z,-0.55
2017-02-01T00:53:10.991Z,-0.51
2017-02-01T00:54:10.971Z,-0.48
2017-02-01T00:55:10.554Z,-0.49
2017-02-01T00:56:10.943Z,-0.43
2017-02-01T00:57:10.918Z,-0.37
2017-02-01T00:58:10.901Z,-0.38
2017-02-01T00:59:10.892Z,-0.48
2017-02-01T01:00:10.865Z,-0.4
2017-02-01T01:01:10.847Z,-0.4
2017-02-01T01:02:10.858Z,-0.37
2017-02-01T01:03:10.413Z,-0.33
2017-02-01T01:04:10.802Z,-0.43
2017-02-01T01:05:10.784Z,-0.38
2017-02-01T01:06:10.363Z,-0.4
2017-02-01T01:07:10.742Z,-0.41
2017-02-01T01:08:10.727Z,-0.48
2017-02-01T01:09:10.318Z,-0.38
2017-02-01T01:10:09.895Z,-0.36
2017-02-01T01:11:10.281Z,-0.49
2017-02-01T01:12:10.660Z,-0.37
2017-02-01T01:13:10.645Z,-0.54
2017-02-01T01:14:10.221Z,-0.43
2017-02-01T01:15:10.605Z,-0.46
2017-02-01T01:16:10.588Z,-0.49
2017-02-01T01:17:10.581Z,-0.48
2017-02-01T01:18:10.157Z,-0.52
2017-02-01T01:19:10.533Z,-0.52
2017-02-01T01:20:10.517Z,-0.56
2017-02-01T01:21:10.103Z,-0.66
2017-02-01T01:22:10.081Z,-0.73
2017-02-01T01:23:10.064Z,-0.69
2017-02-01T01:24:10.441Z,-0.69
2017-02-01T01:25:10.046Z,-0.69
2017-02-01T01:26:10.409Z,-0.7
2017-02-01T01:27:10.391Z,-0.62
2017-02-01T01:28:09.975Z,-0.59
2017-02-01T01:29:10.355Z,-0.59
2017-02-01T01:30:09.941Z,-0.69
2017-02-01T01:31:09.950Z,-0.7
2017-02-01T01:32:09.507Z,-0.59
2017-02-01T01:33:10.286Z,-0.56
2017-02-01T01:34:09.871Z,-0.56
2017-02-01T01:35:10.253Z,-0.56
2017-02-01T01:36:09.835Z,-0.56
2017-02-01T01:37:10.219Z,-0.64
2017-02-01T01:38:10.196Z,-0.7
2017-02-01T01:39:10.179Z,-0.72
2017-02-01T01:40:09.368Z,-0.55
2017-02-01T01:41:09.758Z,-0.66
2017-02-01T01:42:10.135Z,-0.69
2017-02-01T01:43:09.714Z,-0.66
2017-02-01T01:44:09.692Z,-0.64
2017-02-01T01:45:10.076Z,-0.67
2017-02-01T01:46:09.260Z,-0.69
2017-02-01T01:47:10.037Z,-0.66
2017-02-01T01:48:09.624Z,-0.62
2017-02-01T01:49:09.998Z,-0.61
2017-02-01T01:50:09.985Z,-0.69
2017-02-01T01:51:09.967Z,-0.69
2017-02-01T01:52:09.951Z,-0.73
2017-02-01T01:53:09.930Z,-0.64
2017-02-01T01:54:09.916Z,-0.66
2017-02-01T01:55:09.496Z,-0.62
2017-02-01T01:56:09.483Z,-0.62
2017-02-01T01:57:09.859Z,-0.66
2017-02-01T01:58:09.447Z,-0.66
2017-02-01T01:59:09.828Z,-0.59
2017-02-01T02:00:09.811Z,-0.69
2017-02-01T02:01:09.795Z,-0.67
2017-02-01T02:02:09.772Z,-0.66
2017-02-01T02:03:09.758Z,-0.69
2017-02-01T02:04:09.852Z,-0.72
2017-02-01T02:05:09.721Z,-0.62
2017-02-01T02:06:09.708Z,-0.73
2017-02-01T02:07:09.686Z,-0.66
2017-02-01T02:08:09.272Z,-0.72
2017-02-01T02:09:09.255Z,-0.7
2017-02-01T02:10:08.839Z,-0.85
2017-02-01T02:11:09.615Z,-0.79
2017-02-01T02:12:09.602Z,-0.82
2017-02-01T02:13:09.579Z,-0.8
2017-02-01T02:14:09.566Z,-0.79
2017-02-01T02:15:09.544Z,-0.74
2017-02-01T02:16:09.530Z,-0.82
2017-02-01T02:17:09.507Z,-0.82
2017-02-01T02:18:09.493Z,-0.79
2017-02-01T02:19:09.473Z,-0.84
2017-02-01T02:20:09.484Z,-0.82
2017-02-01T02:21:09.439Z,-0.82
2017-02-01T02:22:09.419Z,-0.87
2017-02-01T02:23:09.438Z,-0.87
2017-02-01T02:24:08.587Z,-0.79
2017-02-01T02:25:09.372Z,-0.82
2017-02-01T02:26:09.349Z,-0.8
2017-02-01T02:27:09.333Z,-0.82
2017-02-01T02:28:09.315Z,-0.77
2017-02-01T02:29:09.324Z,-0.64
2017-02-01T02:30:09.283Z,-0.67
2017-02-01T02:31:09.273Z,-0.69
2017-02-01T02:32:09.247Z,-0.66
2017-02-01T02:33:08.832Z,-0.7
2017-02-01T02:34:08.815Z,-0.69
2017-02-01T02:35:09.216Z,-0.62
2017-02-01T02:36:09.169Z,-0.69
2017-02-01T02:37:09.155Z,-0.69
2017-02-01T02:38:08.739Z,-0.67
2017-02-01T02:39:08.718Z,-0.61
2017-02-01T02:40:08.727Z,-0.56
2017-02-01T02:41:09.085Z,-0.67
2017-02-01T02:42:09.063Z,-0.69
2017-02-01T02:43:09.080Z,-0.55
2017-02-01T02:44:09.028Z,-0.72
2017-02-01T02:45:09.082Z,-0.54
2017-02-01T02:46:08.599Z,-0.59
2017-02-01T02:47:08.976Z,-0.61
2017-02-01T02:48:08.966Z,-0.67
2017-02-01T02:49:08.943Z,-0.69
2017-02-01T02:50:08.927Z,-0.67
2017-02-01T02:51:08.904Z,-0.62
2017-02-01T02:52:08.885Z,-0.67
2017-02-01T02:53:08.870Z,-0.66
2017-02-01T02:54:08.852Z,-0.62
2017-02-01T02:55:08.842Z,-0.67
2017-02-01T02:56:08.421Z,-0.69
2017-02-01T02:57:08.800Z,-0.66
2017-02-01T02:58:08.785Z,-0.66
2017-02-01T02:59:08.794Z,-0.69
2017-02-01T03:00:08.753Z,-0.67
2017-02-01T03:01:08.738Z,-0.61
2017-02-01T03:02:08.571Z,-0.64
2017-02-01T03:03:08.700Z,-0.66
2017-02-01T03:04:08.680Z,-0.58
2017-02-01T03:05:08.662Z,-0.61
2017-02-01T03:06:08.647Z,-0.61
2017-02-01T03:07:08.630Z,-0.64
2017-02-01T03:08:08.610Z,-0.59
2017-02-01T03:09:08.593Z,-0.67
2017-02-01T03:10:08.180Z,-0.67
2017-02-01T03:11:08.555Z,-0.67
2017-02-01T03:12:08.545Z,-0.7
2017-02-01T03:13:08.520Z,-0.59
2017-02-01T03:14:08.523Z,-0.69
2017-02-01T03:15:08.487Z,-0.66
2017-02-01T03:16:08.472Z,-0.69
2017-02-01T03:17:08.452Z,-0.7
2017-02-01T03:18:08.439Z,-0.72
2017-02-01T03:19:08.416Z,-0.59
2017-02-01T03:20:08.002Z,-0.59
2017-02-01T03:21:08.380Z,-0.55
2017-02-01T03:22:08.364Z,-0.56
2017-02-01T03:23:08.344Z,-0.59
2017-02-01T03:24:08.330Z,-0.51
2017-02-01T03:25:08.322Z,-0.48
2017-02-01T03:26:08.290Z,-0.55
2017-02-01T03:27:08.276Z,-0.56
2017-02-01T03:28:08.260Z,-0.51
2017-02-01T03:29:08.243Z,-0.54
2017-02-01T03:30:08.230Z,-0.49
2017-02-01T03:31:08.212Z,-0.56
2017-02-01T03:32:08.189Z,-0.46
2017-02-01T03:33:08.179Z,-0.49
2017-02-01T03:34:08.155Z,-0.46
2017-02-01T03:35:08.137Z,-0.52
2017-02-01T03:36:08.120Z,-0.49
2017-02-01T03:37:08.120Z,-0.51
2017-02-01T03:38:08.090Z,-0.43
2017-02-01T03:39:08.081Z,-0.49
2017-02-01T03:40:08.059Z,-0.48
2017-02-01T03:41:08.032Z,-0.45
2017-02-01T03:42:08.016Z,-0.51
2017-02-01T03:43:07.999Z,-0.49
2017-02-01T03:44:07.983Z,-0.48
2017-02-01T03:45:07.965Z,-0.46
2017-02-01T03:46:07.950Z,-0.49
2017-02-01T03:47:07.931Z,-0.43
2017-02-01T03:48:07.915Z,-0.51
2017-02-01T03:49:07.894Z,-0.46
2017-02-01T03:50:07.879Z,-0.51
2017-02-01T03:51:07.868Z,-0.48
2017-02-01T03:52:07.847Z,-0.41
2017-02-01T03:53:07.427Z,-0.48
2017-02-01T03:54:07.811Z,-0.52
2017-02-01T03:55:07.795Z,-0.46
2017-02-01T03:56:07.378Z,-0.51
2017-02-01T03:57:07.759Z,-0.54
2017-02-01T03:58:07.748Z,-0.46
2017-02-01T03:59:07.727Z,-0.41
2017-02-01T04:00:07.312Z,-0.48
2017-02-01T04:01:07.692Z,-0.49
2017-02-01T04:02:07.674Z,-0.33
2017-02-01T04:03:07.659Z,-0.45
2017-02-01T04:04:07.639Z,-0.38
2017-02-01T04:05:07.225Z,-0.41
2017-02-01T04:06:07.605Z,-0.43
2017-02-01T04:07:07.589Z,-0.37
2017-02-01T04:08:07.569Z,-0.49
2017-02-01T04:09:07.155Z,-0.49
2017-02-01T04:10:07.540Z,-0.45
2017-02-01T04:11:07.122Z,-0.51
2017-02-01T04:12:07.497Z,-0.52
2017-02-01T04:13:07.084Z,-0.43
2017-02-01T04:14:07.463Z,-0.45
2017-02-01T04:15:07.443Z,-0.45
2017-02-01T04:16:07.430Z,-0.48
2017-02-01T04:17:07.419Z,-0.51
2017-02-01T04:18:07.396Z,-0.49
2017-02-01T04:19:06.993Z,-0.51
2017-02-01T04:20:07.359Z,-0.51
2017-02-01T04:21:07.348Z,-0.49
2017-02-01T04:22:07.326Z,-0.46
2017-02-01T04:23:07.311Z,-0.49
2017-02-01T04:24:06.895Z,-0.48
2017-02-01T04:25:07.277Z,-0.48
2017-02-01T04:26:07.266Z,-0.48
2017-02-01T04:27:07.240Z,-0.43
2017-02-01T04:28:06.859Z,-0.38
2017-02-01T04:29:07.200Z,-0.48
2017-02-01T04:30:07.191Z,-0.54
2017-02-01T04:31:07.172Z,-0.43
2017-02-01T04:32:07.156Z,-0.51
2017-02-01T04:33:07.137Z,-0.43
2017-02-01T04:34:07.126Z,-0.51
2017-02-01T04:35:07.103Z,-0.51
2017-02-01T04:36:06.687Z,-0.48
2017-02-01T04:37:07.071Z,-0.51
2017-02-01T04:38:07.052Z,-0.45
2017-02-01T04:39:06.637Z,-0.43
2017-02-01T04:40:07.017Z,-0.55
2017-02-01T04:41:06.997Z,-0.51
2017-02-01T04:42:06.980Z,-0.51
2017-02-01T04:43:06.566Z,-0.52
2017-02-01T04:44:06.943Z,-0.43
2017-02-01T04:45:06.931Z,-0.43
2017-02-01T04:46:06.520Z,-0.38
2017-02-01T04:47:06.497Z,-0.43
2017-02-01T04:48:06.879Z,-0.4
2017-02-01T04:49:06.861Z,-0.4
2017-02-01T04:50:06.853Z,-0.45
2017-02-01T04:51:06.826Z,-0.41
2017-02-01T04:52:06.809Z,-0.43
2017-02-01T04:53:06.796Z,-0.34
2017-02-01T04:54:06.774Z,-0.41
2017-02-01T04:55:06.785Z,-0.38
2017-02-01T04:56:06.743Z,-0.41
2017-02-01T04:57:06.729Z,-0.36
2017-02-01T04:58:06.708Z,-0.41
2017-02-01T04:59:06.691Z,-0.43
2017-02-01T05:00:06.275Z,-0.37
2017-02-01T05:01:06.660Z,-0.34
2017-02-01T05:02:06.637Z,-0.36
2017-02-01T05:03:06.618Z,-0.33
2017-02-01T05:04:06.605Z,-0.36
2017-02-01T05:05:06.587Z,-0.33
2017-02-01T05:06:06.572Z,-0.34
2017-02-01T05:07:06.552Z,-0.33
2017-02-01T05:08:06.541Z,-0.34
2017-02-01T05:09:06.522Z,-0.3
2017-02-01T05:10:06.525Z,-0.33
2017-02-01T05:11:06.535Z,-0.34
2017-02-01T05:12:06.468Z,-0.4
2017-02-01T05:13:06.448Z,-0.4
2017-02-01T05:14:06.432Z,-0.4
2017-02-01T05:15:06.416Z,-0.36
2017-02-01T05:16:06.397Z,-0.37
2017-02-01T05:17:06.376Z,-0.37
2017-02-01T05:18:06.364Z,-0.37
2017-02-01T05:19:06.343Z,-0.37
2017-02-01T05:20:06.329Z,-0.36
2017-02-01T05:21:05.914Z,-0.34
2017-02-01T05:22:06.295Z,-0.34
2017-02-01T05:23:06.279Z,-0.34
2017-02-01T05:24:06.263Z,-0.33
2017-02-01T05:25:06.245Z,-0.33
2017-02-01T05:26:06.226Z,-0.4
2017-02-01T05:27:06.211Z,-0.37
2017-02-01T05:28:06.192Z,-0.34
2017-02-01T05:29:06.171Z,-0.38
2017-02-01T05:30:06.167Z,-0.38
2017-02-01T05:31:06.141Z,-0.31
2017-02-01T05:32:06.120Z,-0.38
2017-02-01T05:33:06.107Z,-0.37
2017-02-01T05:34:06.089Z,-0.34
2017-02-01T05:35:05.674Z,-0.31
2017-02-01T05:36:06.056Z,-0.33
2017-02-01T05:37:06.043Z,-0.37
2017-02-01T05:38:06.020Z,-0.28
2017-02-01T05:39:06.006Z,-0.34
2017-02-01T05:40:05.604Z,-0.34
2017-02-01T05:41:05.968Z,-0.36
2017-02-01T05:42:05.951Z,-0.31
2017-02-01T05:43:05.933Z,-0.31
2017-02-01T05:44:05.915Z,-0.36
2017-02-01T05:45:05.499Z,-0.36
2017-02-01T05:46:05.882Z,-0.36
2017-02-01T05:47:05.870Z,-0.36
2017-02-01T05:48:05.850Z,-0.34
2017-02-01T05:49:05.832Z,-0.36
2017-02-01T05:50:05.813Z,-0.27
2017-02-01T05:51:05.799Z,-0.31
2017-02-01T05:52:05.776Z,-0.31
2017-02-01T05:53:05.760Z,-0.33
2017-02-01T05:54:05.745Z,-0.3
2017-02-01T05:55:05.727Z,-0.28
2017-02-01T05:56:05.708Z,-0.33
2017-02-01T05:57:05.693Z,-0.31
2017-02-01T05:58:05.674Z,-0.33
2017-02-01T05:59:05.660Z,-0.36
2017-02-01T06:00:05.642Z,-0.34
2017-02-01T06:01:05.626Z,-0.33
2017-02-01T06:02:05.611Z,-0.33
2017-02-01T06:03:05.604Z,-0.33
2017-02-01T06:04:05.573Z,-0.33
2017-02-01T06:05:05.555Z,-0.33
2017-02-01T06:06:05.536Z,-0.31
2017-02-01T06:07:05.526Z,-0.36
2017-02-01T06:08:05.502Z,-0.36
2017-02-01T06:09:05.487Z,-0.34
2017-02-01T06:10:05.481Z,-0.37
2017-02-01T06:11:05.056Z,-0.31
2017-02-01T06:12:05.436Z,-0.37
2017-02-01T06:13:05.438Z,-0.37
2017-02-01T06:14:05.398Z,-0.37
2017-02-01T06:15:05.383Z,-0.41
2017-02-01T06:16:05.371Z,-0.36
2017-02-01T06:17:05.347Z,-0.34
2017-02-01T06:18:05.331Z,-0.37
2017-02-01T06:19:05.316Z,-0.36
2017-02-01T06:20:05.298Z,-0.33
2017-02-01T06:21:05.281Z,-0.33
2017-02-01T06:22:05.263Z,-0.38
2017-02-01T06:23:05.244Z,-0.34
2017-02-01T06:24:05.226Z,-0.31
2017-02-01T06:25:04.808Z,-0.4
2017-02-01T06:26:05.220Z,-0.34
2017-02-01T06:27:05.174Z,-0.37
2017-02-01T06:28:05.157Z,-0.38
2017-02-01T06:29:05.151Z,-0.36
2017-02-01T06:30:04.733Z,-0.33
2017-02-01T06:31:05.109Z,-0.37
2017-02-01T06:32:05.117Z,-0.3
2017-02-01T06:33:05.073Z,-0.34
2017-02-01T06:34:05.056Z,-0.45
2017-02-01T06:35:04.640Z,-0.38
2017-02-01T06:36:05.018Z,-0.34
2017-02-01T06:37:05.002Z,-0.37
2017-02-01T06:38:04.983Z,-0.37
2017-02-01T06:39:04.568Z,-0.38
2017-02-01T06:40:04.983Z,-0.34
2017-02-01T06:41:04.932Z,-0.33
2017-02-01T06:42:04.917Z,-0.3
2017-02-01T06:43:04.896Z,-0.34
2017-02-01T06:44:04.884Z,-0.31
2017-02-01T06:45:04.863Z,-0.34
2017-02-01T06:46:04.843Z,-0.28
2017-02-01T06:47:04.828Z,-0.31
2017-02-01T06:48:04.812Z,-0.34
2017-02-01T06:49:04.795Z,-0.33
2017-02-01T06:50:04.775Z,-0.28
2017-02-01T06:51:04.763Z,-0.36
2017-02-01T06:52:04.744Z,-0.36
2017-02-01T06:53:04.724Z,-0.38
2017-02-01T06:54:04.708Z,-0.31
2017-02-01T06:55:04.690Z,-0.33
2017-02-01T06:56:04.671Z,-0.37
2017-02-01T06:57:04.284Z,-0.4
2017-02-01T06:58:04.633Z,-0.36
2017-02-01T06:59:04.622Z,-0.34
2017-02-01T07:00:04.604Z,-0.34
2017-02-01T07:01:04.197Z,-0.3
2017-02-01T07:02:04.176Z,-0.31
2017-02-01T07:03:04.178Z,-0.36
2017-02-01T07:04:04.537Z,-0.28
2017-02-01T07:05:04.527Z,-0.36
2017-02-01T07:06:04.102Z,-0.27
2017-02-01T07:07:04.482Z,-0.28
2017-02-01T07:08:04.464Z,-0.31
2017-02-01T07:09:04.452Z,-0.28
2017-02-01T07:10:04.429Z,-0.3
2017-02-01T07:11:04.411Z,-0.2
2017-02-01T07:12:04.004Z,-0.22
2017-02-01T07:13:04.373Z,-0.27
2017-02-01T07:14:04.362Z,-0.25
2017-02-01T07:15:04.344Z,-0.23
2017-02-01T07:16:04.332Z,-0.13
2017-02-01T07:17:04.309Z,-0.13
2017-02-01T07:18:04.292Z,-0.09
2017-02-01T07:19:04.273Z,-0.1
2017-02-01T07:20:04.264Z,-0.1
2017-02-01T07:21:04.240Z,-0.13
2017-02-01T07:22:04.225Z,-0.12
2017-02-01T07:23:04.207Z,-0.19
2017-02-01T07:24:04.186Z,-0.05
2017-02-01T07:25:04.187Z,-0.04
2017-02-01T07:26:04.165Z,-0.07
2017-02-01T07:27:04.133Z,-0.07
2017-02-01T07:28:04.121Z,-0.01
2017-02-01T07:29:04.104Z,-0.01
2017-02-01T07:30:04.094Z,-0.04
2017-02-01T07:31:04.067Z,0.02
2017-02-01T07:32:04.047Z,0.02
2017-02-01T07:33:04.035Z,0.01
2017-02-01T07:34:04.013Z,0.01
2017-02-01T07:35:03.600Z,0.08
2017-02-01T07:36:03.984Z,0.09
2017-02-01T07:37:03.961Z,0.1
2017-02-01T07:38:03.944Z,-0.04
2017-02-01T07:39:03.929Z,0.1
2017-02-01T07:40:03.918Z,0.13
2017-02-01T07:41:03.495Z,0.19
2017-02-01T07:42:03.875Z,0.13
2017-02-01T07:43:03.860Z,0.14
2017-02-01T07:44:03.846Z,0.23
2017-02-01T07:45:03.435Z,0.17
2017-02-01T07:46:03.810Z,0.19
2017-02-01T07:47:03.795Z,0.2
2017-02-01T07:48:03.771Z,0.16
2017-02-01T07:49:03.364Z,0.13
2017-02-01T07:50:03.747Z,0.14
2017-02-01T07:51:03.721Z,0.19
2017-02-01T07:52:03.707Z,0.17
2017-02-01T07:53:03.688Z,0.14
2017-02-01T07:54:03.674Z,0.23
2017-02-01T07:55:03.659Z,0.32
2017-02-01T07:56:03.642Z,0.34
2017-02-01T07:57:03.624Z,0.24
2017-02-01T07:58:03.606Z,0.37
2017-02-01T07:59:03.589Z,0.37
2017-02-01T08:00:03.180Z,0.34
2017-02-01T08:01:03.554Z,0.31
2017-02-01T08:02:03.823Z,0.37
2017-02-01T08:03:03.122Z,0.39
2017-02-01T08:04:03.502Z,0.41
2017-02-01T08:05:03.490Z,0.48
2017-02-01T08:06:03.467Z,0.5
2017-02-01T08:07:03.452Z,0.58
2017-02-01T08:08:03.438Z,0.64
2017-02-01T08:09:03.423Z,0.74
2017-02-01T08:10:03.410Z,0.79
2017-02-01T08:11:02.993Z,0.96
2017-02-01T08:12:03.370Z,0.96
2017-02-01T08:13:03.385Z,1.07
2017-02-01T08:14:03.339Z,1.17
2017-02-01T08:15:03.322Z,1.2
2017-02-01T08:16:03.306Z,1.29
2017-02-01T08:17:03.295Z,1.32
2017-02-01T08:18:03.293Z,1.33
2017-02-01T08:19:03.256Z,1.53
2017-02-01T08:20:03.240Z,1.56
2017-02-01T08:21:02.829Z,1.53
2017-02-01T08:22:03.213Z,1.51
2017-02-01T08:23:03.193Z,1.56
2017-02-01T08:24:03.177Z,1.6
2017-02-01T08:25:03.165Z,1.61
2017-02-01T08:26:03.143Z,1.75
2017-02-01T08:27:03.128Z,1.71
2017-02-01T08:28:03.113Z,1.83
2017-02-01T08:29:03.096Z,1.83
2017-02-01T08:30:03.083Z,1.84
2017-02-01T08:31:03.062Z,1.83
2017-02-01T08:32:03.048Z,1.83
2017-02-01T08:33:03.035Z,1.83
2017-02-01T08:34:03.016Z,1.84
2017-02-01T08:35:02.600Z,1.9
2017-02-01T08:36:02.986Z,1.83
2017-02-01T08:37:02.973Z,1.87
2017-02-01T08:38:02.955Z,1.92
2017-02-01T08:39:02.937Z,1.86
2017-02-01T08:40:02.923Z,1.87
2017-02-01T08:41:02.901Z,1.98
2017-02-01T08:42:02.886Z,1.94
2017-02-01T08:43:02.911Z,1.98
2017-02-01T08:44:02.855Z,1.98
2017-02-01T08:45:02.844Z,2.04
2017-02-01T08:46:02.480Z,2.02
2017-02-01T08:47:02.812Z,2.05
2017-02-01T08:48:02.793Z,2.13
2017-02-01T08:49:02.389Z,2.16
2017-02-01T08:50:02.763Z,2.13
2017-02-01T08:51:02.751Z,2.23
2017-02-01T08:52:02.735Z,2.2
2017-02-01T08:53:02.718Z,2.27
2017-02-01T08:54:02.708Z,2.16
2017-02-01T08:55:02.691Z,2.26
2017-02-01T08:56:02.673Z,2.29
2017-02-01T08:57:02.699Z,2.31
2017-02-01T08:58:02.638Z,2.34
2017-02-01T08:59:02.630Z,2.45
2017-02-01T09:00:02.607Z,2.49
2017-02-01T09:01:02.196Z,2.51
2017-02-01T09:02:02.582Z,2.52
2017-02-01T09:03:02.588Z,2.51
2017-02-01T09:04:01.752Z,2.36
2017-02-01T09:05:02.537Z,2.34
2017-02-01T09:06:02.512Z,2.29
2017-02-01T09:07:02.498Z,2.34
2017-02-01T09:08:03.030Z,2.4
2017-02-01T09:09:02.071Z,2.31
2017-02-01T09:10:02.461Z,2.2
2017-02-01T09:11:02.071Z,2.18
2017-02-01T09:12:02.037Z,2.18
2017-02-01T09:13:02.406Z,2.15
2017-02-01T09:14:01.999Z,2.2
2017-02-01T09:15:02.376Z,2.18
2017-02-01T09:16:02.363Z,2.2
2017-02-01T09:17:02.344Z,2.15
2017-02-01T09:18:02.332Z,2.16
2017-02-01T09:19:02.362Z,2.15
2017-02-01T09:20:02.301Z,2.24
2017-02-01T09:21:01.885Z,2.29
2017-02-01T09:22:02.269Z,2.34
2017-02-01T09:23:02.256Z,2.36
2017-02-01T09:24:02.355Z,2.55
2017-02-01T09:25:02.229Z,2.65
2017-02-01T09:26:02.208Z,2.73
2017-02-01T09:27:02.191Z,2.8
2017-02-01T09:28:01.803Z,2.88
2017-02-01T09:29:02.164Z,2.95
2017-02-01T09:30:02.151Z,3.02
2017-02-01T09:31:02.137Z,2.9
2017-02-01T09:32:02.117Z,2.9
2017-02-01T09:33:02.109Z,2.85
2017-02-01T09:34:02.091Z,2.85
2017-02-01T09:35:02.074Z,2.91
2017-02-01T09:36:02.058Z,2.88
2017-02-01T09:37:02.047Z,2.95
2017-02-01T09:38:02.030Z,2.98
2017-02-01T09:39:02.017Z,2.9
2017-02-01T09:40:02.025Z,2.93
2017-02-01T09:41:01.983Z,2.9
2017-02-01T09:42:01.994Z,2.9
2017-02-01T09:43:01.959Z,2.93
2017-02-01T09:44:01.940Z,2.96
2017-02-01T09:45:01.574Z,2.99
2017-02-01T09:46:01.921Z,3.06
2017-02-01T09:47:01.496Z,3.03
2017-02-01T09:48:01.886Z,3.16
2017-02-01T09:49:01.869Z,3.08
2017-02-01T09:50:01.849Z,3.14
2017-02-01T09:51:01.843Z,3.13
2017-02-01T09:52:01.830Z,3.19
2017-02-01T09:53:01.813Z,3.24
2017-02-01T09:54:01.400Z,3.23
2017-02-01T09:55:01.383Z,3.23
2017-02-01T09:56:01.766Z,3.21
2017-02-01T09:57:01.750Z,3.24
2017-02-01T09:58:01.733Z,3.37
2017-02-01T09:59:01.727Z,3.35
2017-02-01T10:00:01.712Z,3.29
2017-02-01T10:01:01.695Z,3.24
2017-02-01T10:02:01.921Z,3.17
2017-02-01T10:03:01.664Z,3.24
2017-02-01T10:04:01.653Z,3.29
2017-02-01T10:05:01.243Z,3.24
2017-02-01T10:06:01.633Z,3.23
2017-02-01T10:07:01.613Z,3.23
2017-02-01T10:08:01.591Z,3.16
2017-02-01T10:09:01.593Z,3.16
2017-02-01T10:10:01.569Z,3.08
2017-02-01T10:11:01.557Z,3.06
2017-02-01T10:12:01.139Z,3.03
2017-02-01T10:13:01.527Z,3.11
2017-02-01T10:14:01.536Z,3.14
2017-02-01T10:15:01.499Z,3.16
2017-02-01T10:16:01.479Z,3.11
2017-02-01T10:17:01.072Z,3.21
2017-02-01T10:18:01.455Z,3.17
2017-02-01T10:19:01.435Z,3.27
2017-02-01T10:20:01.025Z,3.21
2017-02-01T10:21:01.406Z,3.39
2017-02-01T10:22:01.395Z,3.34
2017-02-01T10:23:01.380Z,3.46
2017-02-01T10:24:01.365Z,3.42
2017-02-01T10:25:00.954Z,3.49
2017-02-01T10:26:01.342Z,3.49
2017-02-01T10:27:01.333Z,3.49
2017-02-01T10:28:01.307Z,3.48
2017-02-01T10:29:01.294Z,3.58
2017-02-01T10:30:01.280Z,3.49
2017-02-01T10:31:01.265Z,3.53
2017-02-01T10:32:01.249Z,3.54
2017-02-01T10:33:01.239Z,3.53
2017-02-01T10:34:01.225Z,3.54
2017-02-01T10:35:01.212Z,3.49
2017-02-01T10:36:01.205Z,3.53
2017-02-01T10:37:01.181Z,3.58
2017-02-01T10:38:01.166Z,3.51
2017-02-01T10:39:01.156Z,3.51
2017-02-01T10:40:01.141Z,3.6
2017-02-01T10:41:01.124Z,3.64
2017-02-01T10:42:01.115Z,3.67
2017-02-01T10:43:01.103Z,3.69
2017-02-01T10:44:01.082Z,3.67
2017-02-01T10:45:01.078Z,3.64
2017-02-01T10:46:01.057Z,3.75
2017-02-01T10:47:01.045Z,3.71
2017-02-01T10:48:01.028Z,3.79
2017-02-01T10:49:01.012Z,3.84
2017-02-01T10:50:00.611Z,3.85
2017-02-01T10:51:00.995Z,3.96
2017-02-01T10:52:01.007Z,4.11
2017-02-01T10:53:00.959Z,4.15
2017-02-01T10:54:00.945Z,4.2
2017-02-01T10:55:00.933Z,4.44
2017-02-01T10:56:00.915Z,4.44
2017-02-01T10:57:00.906Z,4.51
2017-02-01T10:58:00.893Z,4.54
2017-02-01T10:59:00.877Z,4.6
2017-02-01T11:00:00.076Z,4.69
2017-02-01T11:01:00.456Z,4.68
2017-02-01T11:02:00.837Z,4.64
2017-02-01T11:03:00.822Z,4.72
2017-02-01T11:04:00.811Z,4.88
2017-02-01T11:05:00.795Z,4.92
2017-02-01T11:06:00.782Z,4.92
2017-02-01T11:07:00.773Z,4.95
2017-02-01T11:08:00.761Z,5.03
2017-02-01T11:09:00.745Z,5.15
2017-02-01T11:10:00.336Z,5.15
2017-02-01T11:11:00.723Z,5.12
2017-02-01T11:12:00.708Z,5.18
2017-02-01T11:13:00.695Z,5.21
2017-02-01T11:14:00.711Z,5.16
2017-02-01T11:15:00.707Z,5.03
2017-02-01T11:16:00.654Z,5.08
2017-02-01T11:17:00.645Z,5.12
2017-02-01T11:18:00.629Z,5.15
2017-02-01T11:19:00.617Z,5.21
2017-02-01T11:20:00.604Z,5.2
2017-02-01T11:21:00.601Z,5.13
2017-02-01T11:22:00.581Z,5.09
2017-02-01T11:23:00.564Z,5.12
2017-02-01T11:24:00.553Z,5.1
2017-02-01T11:25:00.540Z,5.15
2017-02-01T11:26:00.529Z,5.18
2017-02-01T11:27:00.516Z,5.18
2017-02-01T11:28:00.512Z,5.23
2017-02-01T11:29:00.098Z,5.16
2017-02-01T11:30:00.369Z,5.18
2017-02-01T11:31:00.467Z,5.23
2017-02-01T11:32:00.455Z,5.24
2017-02-01T11:33:00.441Z,5.28
2017-02-01T11:34:00.428Z,5.3
2017-02-01T11:35:00.415Z,5.42
2017-02-01T11:36:00.403Z,5.44
2017-02-01T11:37:00.000Z,5.46
2017-02-01T11:38:00.382Z,5.57
2017-02-01T11:39:00.368Z,5.51
2017-02-01T11:40:00.352Z,5.57
2017-02-01T11:41:00.341Z,5.64
2017-02-01T11:42:00.337Z,5.55
2017-02-01T11:43:00.321Z,5.59
2017-02-01T11:44:00.302Z,5.62
2017-02-01T11:45:00.289Z,5.55
2017-02-01T11:46:00.279Z,5.54
2017-02-01T11:47:00.274Z,5.54
2017-02-01T11:48:00.256Z,5.46
2017-02-01T11:49:00.273Z,5.48
2017-02-01T11:50:00.228Z,5.46
2017-02-01T11:51:00.216Z,5.41
2017-02-01T11:52:00.207Z,5.39
2017-02-01T11:53:00.197Z,5.44
2017-02-01T11:54:00.182Z,5.42
2017-02-01T11:55:00.171Z,5.45
2017-02-01T11:56:00.157Z,5.44
2017-02-01T11:57:00.146Z,5.39
2017-02-01T11:58:00.134Z,5.48
2017-02-01T11:59:00.125Z,5.41
2017-02-01T12:00:00.110Z,5.41
2017-02-01T12:01:00.096Z,5.49
2017-02-01T12:02:00.082Z,5.52
2017-02-01T12:03:00.070Z,5.57
2017-02-01T12:04:00.059Z,5.48
2017-02-01T12:04:59.647Z,5.48
2017-02-01T12:06:00.031Z,5.48
2017-02-01T12:07:00.023Z,5.54
2017-02-01T12:08:00.008Z,5.51
2017-02-01T12:08:59.602Z,5.45
2017-02-01T12:09:59.985Z,5.51
2017-02-01T12:10:59.970Z,5.57
2017-02-01T12:11:59.964Z,5.57
2017-02-01T12:12:59.949Z,5.45
2017-02-01T12:13:59.941Z,5.48
2017-02-01T12:14:59.925Z,5.44
2017-02-01T12:15:59.908Z,5.46
2017-02-01T12:16:59.528Z,5.37
2017-02-01T12:17:59.890Z,5.42
2017-02-01T12:18:59.878Z,5.36
2017-02-01T12:19:59.878Z,5.52
2017-02-01T12:20:59.456Z,5.45
2017-02-01T12:21:59.837Z,5.48
2017-02-01T12:22:59.825Z,5.37
2017-02-01T12:23:59.475Z,5.37
2017-02-01T12:24:59.828Z,5.36
2017-02-01T12:25:59.787Z,5.44
2017-02-01T12:26:59.775Z,5.42
2017-02-01T12:27:59.771Z,5.26
2017-02-01T12:28:59.754Z,5.16
2017-02-01T12:29:59.737Z,5.2
2017-02-01T12:30:59.727Z,5.26
2017-02-01T12:31:59.719Z,5.21
2017-02-01T12:32:59.709Z,5.15
2017-02-01T12:33:59.698Z,5.12
2017-02-01T12:34:59.677Z,4.97
2017-02-01T12:35:59.666Z,4.97
2017-02-01T12:36:59.656Z,4.92
2017-02-01T12:37:59.645Z,4.74
2017-02-01T12:38:59.630Z,4.65
2017-02-01T12:39:59.617Z,4.68
2017-02-01T12:40:59.213Z,4.69
2017-02-01T12:41:59.594Z,4.68
2017-02-01T12:42:59.583Z,4.71
2017-02-01T12:43:59.570Z,4.72
2017-02-01T12:44:59.565Z,4.68
2017-02-01T12:45:59.552Z,4.64
2017-02-01T12:46:59.533Z,4.61
2017-02-01T12:47:59.520Z,4.46
2017-02-01T12:48:59.513Z,4.39
2017-02-01T12:49:59.495Z,4.36
2017-02-01T12:50:59.548Z,4.28
2017-02-01T12:51:59.472Z,4.26
2017-02-01T12:52:59.461Z,4.12
2017-02-01T12:53:59.448Z,4.08
2017-02-01T12:54:59.430Z,4.04
2017-02-01T12:55:59.418Z,3.92
2017-02-01T12:56:59.407Z,3.86
2017-02-01T12:57:59.390Z,3.74
2017-02-01T12:58:59.380Z,3.67
2017-02-01T12:59:59.367Z,3.58
2017-02-01T13:00:59.362Z,3.57
2017-02-01T13:01:58.945Z,3.54
2017-02-01T13:02:59.323Z,3.42
2017-02-01T13:03:59.312Z,3.43
2017-02-01T13:04:58.903Z,3.4